sensor_id;sensor_type;location;lat;lon;timestamp;pressure;altitude;pressure_sealevel;temperature;humidity
35989;BME280;22064;42.672;23.282;2023-04-27T00:02:04;94356.63;;;6.88;100.00
35989;BME280;22064;42.672;23.282;2023-04-27T00:04:30;94365.84;;;6.84;100.00
35989;BME280;22064;42.672;23.282;2023-04-27T00:06:57;94366.09;;;6.82;100.00
35989;BME280;22064;42.672;23.282;2023-04-27T00:09:23;94368.75;;;6.76;100.00
35989;BME280;22064;42.672;23.282;2023-04-27T00:11:49;94368.91;;;6.81;100.00
35989;BME280;22064;42.672;23.282;2023-04-27T00:14:14;94386.78;;;6.70;100.00
35989;BME280;22064;42.672;23.282;2023-04-27T00:16:40;94381.28;;;6.67;100.00
35989;BME280;22064;42.672;23.282;2023-04-27T00:19:06;94373.03;;;6.58;100.00
35989;BME280;22064;42.672;23.282;2023-04-27T00:21:33;94393.50;;;6.60;100.00
35989;BME280;22064;42.672;23.282;2023-04-27T00:24:00;94388.09;;;6.50;100.00
35989;BME280;22064;42.672;23.282;2023-04-27T00:26:25;94355.47;;;6.37;100.00
35989;BME280;22064;42.672;23.282;2023-04-27T00:28:52;94386.72;;;6.47;100.00
35989;BME280;22064;42.672;23.282;2023-04-27T00:31:18;94383.34;;;6.46;100.00
35989;BME280;22064;42.672;23.282;2023-04-27T00:33:44;94376.16;;;6.37;100.00
35989;BME280;22064;42.672;23.282;2023-04-27T00:36:09;94385.13;;;6.34;100.00
35989;BME280;22064;42.672;23.282;2023-04-27T00:38:35;94382.53;;;6.34;100.00
35989;BME280;22064;42.672;23.282;2023-04-27T00:41:02;94379.81;;;6.29;100.00
35989;BME280;22064;42.672;23.282;2023-04-27T00:43:28;94369.28;;;6.31;100.00
35989;BME280;22064;42.672;23.282;2023-04-27T00:45:54;94385.53;;;6.19;100.00
35989;BME280;22064;42.672;23.282;2023-04-27T00:48:20;94378.97;;;6.05;100.00
35989;BME280;22064;42.672;23.282;2023-04-27T00:50:46;94376.59;;;6.04;100.00
35989;BME280;22064;42.672;23.282;2023-04-27T00:53:12;94379.84;;;5.99;100.00
35989;BME280;22064;42.672;23.282;2023-04-27T00:55:39;94381.44;;;6.00;100.00
35989;BME280;22064;42.672;23.282;2023-04-27T00:58:04;94372.97;;;5.93;100.00
35989;BME280;22064;42.672;23.282;2023-04-27T01:00:31;94383.16;;;5.88;100.00
35989;BME280;22064;42.672;23.282;2023-04-27T01:02:57;94395.72;;;5.84;100.00
35989;BME280;22064;42.672;23.282;2023-04-27T01:05:24;94387.63;;;5.81;100.00
35989;BME280;22064;42.672;23.282;2023-04-27T01:07:50;94393.81;;;5.79;100.00
35989;BME280;22064;42.672;23.282;2023-04-27T01:10:16;94393.66;;;5.74;100.00
35989;BME280;22064;42.672;23.282;2023-04-27T01:12:42;94398.47;;;5.71;100.00
35989;BME280;22064;42.672;23.282;2023-04-27T01:15:09;94395.97;;;5.64;100.00
35989;BME280;22064;42.672;23.282;2023-04-27T01:17:35;94386.97;;;5.67;100.00
35989;BME280;22064;42.672;23.282;2023-04-27T01:20:03;94390.81;;;5.64;100.00
35989;BME280;22064;42.672;23.282;2023-04-27T01:22:32;94373.28;;;5.48;100.00
35989;BME280;22064;42.672;23.282;2023-04-27T01:24:58;94398.16;;;5.61;100.00
35989;BME280;22064;42.672;23.282;2023-04-27T01:27:24;94397.38;;;5.60;100.00
35989;BME280;22064;42.672;23.282;2023-04-27T01:29:50;94400.28;;;5.52;100.00
35989;BME280;22064;42.672;23.282;2023-04-27T01:32:16;94406.72;;;5.61;100.00
35989;BME280;22064;42.672;23.282;2023-04-27T01:34:42;94399.63;;;5.56;100.00
35989;BME280;22064;42.672;23.282;2023-04-27T01:37:07;94404.16;;;5.61;100.00
35989;BME280;22064;42.672;23.282;2023-04-27T01:39:33;94404.00;;;5.56;100.00
35989;BME280;22064;42.672;23.282;2023-04-27T01:41:59;94406.72;;;5.61;100.00
35989;BME280;22064;42.672;23.282;2023-04-27T01:44:28;94403.75;;;5.57;100.00
35989;BME280;22064;42.672;23.282;2023-04-27T01:46:54;94412.16;;;5.53;100.00
35989;BME280;22064;42.672;23.282;2023-04-27T01:49:20;94409.16;;;5.56;100.00
35989;BME280;22064;42.672;23.282;2023-04-27T01:51:46;94409.25;;;5.49;100.00
35989;BME280;22064;42.672;23.282;2023-04-27T01:54:11;94408.38;;;5.55;100.00
35989;BME280;22064;42.672;23.282;2023-04-27T01:56:37;94412.41;;;5.51;100.00
35989;BME280;22064;42.672;23.282;2023-04-27T01:59:03;94398.56;;;5.46;100.00
35989;BME280;22064;42.672;23.282;2023-04-27T02:01:29;94408.81;;;5.52;100.00
35989;BME280;22064;42.672;23.282;2023-04-27T02:03:56;94402.44;;;5.55;100.00
35989;BME280;22064;42.672;23.282;2023-04-27T02:06:22;94403.06;;;5.50;100.00
35989;BME280;22064;42.672;23.282;2023-04-27T02:08:48;94408.56;;;5.54;100.00
35989;BME280;22064;42.672;23.282;2023-04-27T02:11:14;94380.75;;;5.38;100.00
35989;BME280;22064;42.672;23.282;2023-04-27T02:13:39;94402.06;;;5.51;100.00
35989;BME280;22064;42.672;23.282;2023-04-27T02:16:06;94406.50;;;5.63;100.00
35989;BME280;22064;42.672;23.282;2023-04-27T02:18:32;94399.84;;;5.55;100.00
35989;BME280;22064;42.672;23.282;2023-04-27T02:20:58;94417.50;;;5.58;100.00
35989;BME280;22064;42.672;23.282;2023-04-27T02:23:24;94422.06;;;5.56;100.00
35989;BME280;22064;42.672;23.282;2023-04-27T02:25:50;94411.31;;;5.59;100.00
35989;BME280;22064;42.672;23.282;2023-04-27T02:28:16;94414.25;;;5.63;100.00
35989;BME280;22064;42.672;23.282;2023-04-27T02:30:41;94406.72;;;5.61;100.00
35989;BME280;22064;42.672;23.282;2023-04-27T02:33:07;94410.53;;;5.59;100.00
35989;BME280;22064;42.672;23.282;2023-04-27T02:35:33;94410.00;;;5.68;100.00
35989;BME280;22064;42.672;23.282;2023-04-27T02:37:59;94418.97;;;5.66;100.00
35989;BME280;22064;42.672;23.282;2023-04-27T02:40:25;94418.91;;;5.72;100.00
35989;BME280;22064;42.672;23.282;2023-04-27T02:42:51;94424.22;;;5.77;100.00
35989;BME280;22064;42.672;23.282;2023-04-27T02:45:17;94419.47;;;5.74;100.00
35989;BME280;22064;42.672;23.282;2023-04-27T02:47:42;94412.25;;;5.65;100.00
35989;BME280;22064;42.672;23.282;2023-04-27T02:50:09;94420.44;;;5.62;100.00
35989;BME280;22064;42.672;23.282;2023-04-27T02:52:35;94426.72;;;5.66;100.00
35989;BME280;22064;42.672;23.282;2023-04-27T02:55:01;94421.38;;;5.67;100.00
35989;BME280;22064;42.672;23.282;2023-04-27T02:57:27;94424.16;;;5.66;100.00
35989;BME280;22064;42.672;23.282;2023-04-27T02:59:53;94419.06;;;5.59;100.00
35989;BME280;22064;42.672;23.282;2023-04-27T03:02:18;94419.63;;;5.61;100.00
35989;BME280;22064;42.672;23.282;2023-04-27T03:04:44;94431.38;;;5.57;100.00
35989;BME280;22064;42.672;23.282;2023-04-27T03:07:10;94436.72;;;5.62;100.00
35989;BME280;22064;42.672;23.282;2023-04-27T03:09:37;94420.56;;;5.67;100.00
35989;BME280;22064;42.672;23.282;2023-04-27T03:12:03;94432.91;;;5.65;100.00
35989;BME280;22064;42.672;23.282;2023-04-27T03:14:29;94438.50;;;5.62;100.00
35989;BME280;22064;42.672;23.282;2023-04-27T03:16:56;94442.06;;;5.61;100.00
35989;BME280;22064;42.672;23.282;2023-04-27T03:19:22;94445.03;;;5.46;100.00
35989;BME280;22064;42.672;23.282;2023-04-27T03:21:49;94450.31;;;5.51;100.00
35989;BME280;22064;42.672;23.282;2023-04-27T03:24:15;94456.66;;;5.55;100.00
35989;BME280;22064;42.672;23.282;2023-04-27T03:26:41;94447.25;;;5.42;100.00
35989;BME280;22064;42.672;23.282;2023-04-27T03:29:07;94450.47;;;5.38;100.00
35989;BME280;22064;42.672;23.282;2023-04-27T03:31:33;94455.19;;;5.41;100.00
35989;BME280;22064;42.672;23.282;2023-04-27T03:33:59;94467.09;;;5.42;100.00
35989;BME280;22064;42.672;23.282;2023-04-27T03:36:25;94461.03;;;5.36;100.00
35989;BME280;22064;42.672;23.282;2023-04-27T03:38:51;94459.22;;;5.37;100.00
35989;BME280;22064;42.672;23.282;2023-04-27T03:41:17;94458.88;;;5.33;100.00
35989;BME280;22064;42.672;23.282;2023-04-27T03:43:43;94469.22;;;5.26;100.00
35989;BME280;22064;42.672;23.282;2023-04-27T03:46:09;94463.88;;;5.28;100.00
35989;BME280;22064;42.672;23.282;2023-04-27T03:48:36;94464.53;;;5.23;100.00
35989;BME280;22064;42.672;23.282;2023-04-27T03:51:02;94467.09;;;5.23;100.00
35989;BME280;22064;42.672;23.282;2023-04-27T03:53:28;94468.50;;;5.19;100.00
35989;BME280;22064;42.672;23.282;2023-04-27T03:55:54;94472.03;;;5.25;100.00
35989;BME280;22064;42.672;23.282;2023-04-27T03:58:20;94444.25;;;5.02;100.00
35989;BME280;22064;42.672;23.282;2023-04-27T04:01:06;94470.13;;;5.14;100.00
35989;BME280;22064;42.672;23.282;2023-04-27T04:03:35;94475.72;;;5.10;100.00
35989;BME280;22064;42.672;23.282;2023-04-27T04:06:04;94481.69;;;5.11;100.00
35989;BME280;22064;42.672;23.282;2023-04-27T04:08:30;94489.03;;;5.14;100.00
35989;BME280;22064;42.672;23.282;2023-04-27T04:10:59;94501.94;;;5.14;100.00
35989;BME280;22064;42.672;23.282;2023-04-27T04:13:26;94502.28;;;5.18;100.00
35989;BME280;22064;42.672;23.282;2023-04-27T04:18:28;94505.44;;;5.20;100.00
35989;BME280;22064;42.672;23.282;2023-04-27T04:20:54;94506.97;;;5.27;100.00
35989;BME280;22064;42.672;23.282;2023-04-27T04:23:20;94506.25;;;5.20;100.00
35989;BME280;22064;42.672;23.282;2023-04-27T04:25:46;94514.81;;;5.14;100.00
35989;BME280;22064;42.672;23.282;2023-04-27T04:28:12;94508.97;;;5.25;100.00
35989;BME280;22064;42.672;23.282;2023-04-27T04:30:38;94504.66;;;5.19;100.00
35989;BME280;22064;42.672;23.282;2023-04-27T04:33:05;94512.56;;;5.24;100.00
35989;BME280;22064;42.672;23.282;2023-04-27T04:35:31;94522.41;;;5.34;100.00
35989;BME280;22064;42.672;23.282;2023-04-27T04:38:00;94513.31;;;5.50;100.00
35989;BME280;22064;42.672;23.282;2023-04-27T04:40:26;94523.06;;;5.48;100.00
35989;BME280;22064;42.672;23.282;2023-04-27T04:42:52;94527.53;;;5.59;100.00
35989;BME280;22064;42.672;23.282;2023-04-27T04:45:18;94516.63;;;5.57;100.00
35989;BME280;22064;42.672;23.282;2023-04-27T04:47:45;94521.72;;;5.64;100.00
35989;BME280;22064;42.672;23.282;2023-04-27T04:50:12;94530.41;;;5.69;100.00
35989;BME280;22064;42.672;23.282;2023-04-27T04:52:38;94523.16;;;5.60;100.00
35989;BME280;22064;42.672;23.282;2023-04-27T04:55:04;94529.69;;;5.62;100.00
35989;BME280;22064;42.672;23.282;2023-04-27T04:57:30;94535.59;;;5.69;100.00
35989;BME280;22064;42.672;23.282;2023-04-27T04:59:56;94532.16;;;5.75;99.57
35989;BME280;22064;42.672;23.282;2023-04-27T05:02:23;94544.13;;;5.88;97.59
35989;BME280;22064;42.672;23.282;2023-04-27T05:04:49;94545.00;;;5.82;96.20
35989;BME280;22064;42.672;23.282;2023-04-27T05:07:16;94540.97;;;5.68;99.26
35989;BME280;22064;42.672;23.282;2023-04-27T05:09:42;94553.09;;;5.67;100.00
35989;BME280;22064;42.672;23.282;2023-04-27T05:12:08;94541.53;;;5.70;100.00
35989;BME280;22064;42.672;23.282;2023-04-27T05:14:34;94557.28;;;5.87;100.00
35989;BME280;22064;42.672;23.282;2023-04-27T05:17:00;94559.50;;;5.83;100.00
35989;BME280;22064;42.672;23.282;2023-04-27T05:19:29;94560.06;;;5.85;100.00
35989;BME280;22064;42.672;23.282;2023-04-27T05:21:56;94557.13;;;5.82;100.00
35989;BME280;22064;42.672;23.282;2023-04-27T05:24:24;94568.53;;;6.17;100.00
35989;BME280;22064;42.672;23.282;2023-04-27T05:26:50;94563.00;;;6.14;100.00
35989;BME280;22064;42.672;23.282;2023-04-27T05:29:16;94562.47;;;5.87;100.00
35989;BME280;22064;42.672;23.282;2023-04-27T05:31:42;94560.72;;;5.81;100.00
35989;BME280;22064;42.672;23.282;2023-04-27T05:34:08;94588.56;;;5.78;100.00
35989;BME280;22064;42.672;23.282;2023-04-27T05:36:35;94566.38;;;5.71;100.00
35989;BME280;22064;42.672;23.282;2023-04-27T05:39:01;94576.59;;;5.84;100.00
35989;BME280;22064;42.672;23.282;2023-04-27T05:41:28;94578.88;;;5.74;100.00
35989;BME280;22064;42.672;23.282;2023-04-27T05:43:54;94581.41;;;5.55;100.00
35989;BME280;22064;42.672;23.282;2023-04-27T05:46:20;94584.59;;;5.76;100.00
35989;BME280;22064;42.672;23.282;2023-04-27T05:48:46;94591.31;;;5.84;100.00
35989;BME280;22064;42.672;23.282;2023-04-27T05:51:12;94586.94;;;5.59;100.00
35989;BME280;22064;42.672;23.282;2023-04-27T05:53:38;94587.72;;;5.60;100.00
35989;BME280;22064;42.672;23.282;2023-04-27T05:56:04;94572.34;;;5.71;100.00
35989;BME280;22064;42.672;23.282;2023-04-27T05:58:32;94576.91;;;5.94;100.00
35989;BME280;22064;42.672;23.282;2023-04-27T06:00:59;94579.97;;;5.85;100.00
35989;BME280;22064;42.672;23.282;2023-04-27T06:03:25;94564.09;;;5.81;100.00
35989;BME280;22064;42.672;23.282;2023-04-27T06:05:55;94582.34;;;5.86;100.00
35989;BME280;22064;42.672;23.282;2023-04-27T06:08:22;94592.06;;;6.09;100.00
35989;BME280;22064;42.672;23.282;2023-04-27T06:10:49;94576.22;;;6.06;100.00
35989;BME280;22064;42.672;23.282;2023-04-27T06:13:16;94580.09;;;6.15;100.00
35989;BME280;22064;42.672;23.282;2023-04-27T06:15:42;94578.56;;;6.25;100.00
35989;BME280;22064;42.672;23.282;2023-04-27T06:18:08;94574.06;;;6.39;100.00
35989;BME280;22064;42.672;23.282;2023-04-27T06:20:34;94576.13;;;6.49;100.00
35989;BME280;22064;42.672;23.282;2023-04-27T06:23:01;94580.56;;;6.60;100.00
35989;BME280;22064;42.672;23.282;2023-04-27T06:25:27;94571.38;;;6.64;100.00
35989;BME280;22064;42.672;23.282;2023-04-27T06:27:54;94568.00;;;6.64;100.00
35989;BME280;22064;42.672;23.282;2023-04-27T06:30:21;94584.31;;;6.64;99.97
35989;BME280;22064;42.672;23.282;2023-04-27T06:32:47;94585.78;;;6.72;100.00
35989;BME280;22064;42.672;23.282;2023-04-27T06:35:14;94572.81;;;6.90;100.00
35989;BME280;22064;42.672;23.282;2023-04-27T06:37:39;94571.22;;;7.20;97.68
35989;BME280;22064;42.672;23.282;2023-04-27T06:40:06;94557.81;;;6.81;94.42
35989;BME280;22064;42.672;23.282;2023-04-27T06:42:33;94563.00;;;6.81;96.65
35989;BME280;22064;42.672;23.282;2023-04-27T06:44:59;94567.53;;;6.97;95.59
35989;BME280;22064;42.672;23.282;2023-04-27T06:47:26;94577.28;;;7.13;94.01
35989;BME280;22064;42.672;23.282;2023-04-27T06:49:51;94571.94;;;6.97;89.43
35989;BME280;22064;42.672;23.282;2023-04-27T06:52:17;94562.78;;;6.94;91.43
35989;BME280;22064;42.672;23.282;2023-04-27T06:54:43;94551.44;;;6.95;92.21
35989;BME280;22064;42.672;23.282;2023-04-27T06:57:09;94560.47;;;7.04;90.69
35989;BME280;22064;42.672;23.282;2023-04-27T06:59:35;94556.66;;;7.18;87.35
35989;BME280;22064;42.672;23.282;2023-04-27T07:02:01;94545.53;;;7.18;87.18
35989;BME280;22064;42.672;23.282;2023-04-27T07:04:28;94560.88;;;7.20;84.34
35989;BME280;22064;42.672;23.282;2023-04-27T07:06:54;94563.31;;;7.14;86.30
35989;BME280;22064;42.672;23.282;2023-04-27T07:09:21;94572.59;;;7.34;82.47
35989;BME280;22064;42.672;23.282;2023-04-27T07:11:46;94554.69;;;7.44;82.40
35989;BME280;22064;42.672;23.282;2023-04-27T07:14:12;94565.84;;;7.56;80.54
35989;BME280;22064;42.672;23.282;2023-04-27T07:16:38;94553.91;;;7.55;80.82
35989;BME280;22064;42.672;23.282;2023-04-27T07:19:04;94556.84;;;7.71;76.93
35989;BME280;22064;42.672;23.282;2023-04-27T07:21:30;94574.22;;;7.70;76.13
35989;BME280;22064;42.672;23.282;2023-04-27T07:23:56;94555.63;;;7.73;75.92
35989;BME280;22064;42.672;23.282;2023-04-27T07:26:22;94568.91;;;7.77;74.35
35989;BME280;22064;42.672;23.282;2023-04-27T07:28:48;94557.28;;;7.91;77.31
35989;BME280;22064;42.672;23.282;2023-04-27T07:31:15;94551.44;;;7.84;75.31
35989;BME280;22064;42.672;23.282;2023-04-27T07:33:41;94549.06;;;7.82;78.59
35989;BME280;22064;42.672;23.282;2023-04-27T07:36:07;94568.22;;;8.17;76.16
35989;BME280;22064;42.672;23.282;2023-04-27T07:38:33;94566.75;;;7.97;70.66
35989;BME280;22064;42.672;23.282;2023-04-27T07:41:01;94554.78;;;8.08;69.72
35989;BME280;22064;42.672;23.282;2023-04-27T07:43:29;94549.81;;;8.18;70.22
35989;BME280;22064;42.672;23.282;2023-04-27T07:45:56;94550.06;;;8.17;69.04
35989;BME280;22064;42.672;23.282;2023-04-27T07:48:23;94557.19;;;7.98;72.19
35989;BME280;22064;42.672;23.282;2023-04-27T07:50:49;94573.72;;;7.97;71.02
35989;BME280;22064;42.672;23.282;2023-04-27T07:53:16;94539.97;;;8.32;71.37
35989;BME280;22064;42.672;23.282;2023-04-27T07:55:41;94574.38;;;8.16;67.17
35989;BME280;22064;42.672;23.282;2023-04-27T07:58:10;94541.91;;;8.25;67.19
35989;BME280;22064;42.672;23.282;2023-04-27T08:00:37;94551.38;;;8.43;65.67
35989;BME280;22064;42.672;23.282;2023-04-27T08:03:03;94547.66;;;8.96;61.83
35989;BME280;22064;42.672;23.282;2023-04-27T08:05:28;94553.09;;;8.94;62.19
35989;BME280;22064;42.672;23.282;2023-04-27T08:07:54;94583.47;;;8.53;60.10
35989;BME280;22064;42.672;23.282;2023-04-27T08:10:21;94559.34;;;8.53;61.70
35989;BME280;22064;42.672;23.282;2023-04-27T08:12:47;94553.63;;;8.96;61.93
35989;BME280;22064;42.672;23.282;2023-04-27T08:15:14;94556.50;;;8.95;61.11
35989;BME280;22064;42.672;23.282;2023-04-27T08:17:40;94548.72;;;8.66;61.33
35989;BME280;22064;42.672;23.282;2023-04-27T08:20:07;94551.75;;;8.92;61.87
35989;BME280;22064;42.672;23.282;2023-04-27T08:22:36;94550.16;;;9.19;60.06
35989;BME280;22064;42.672;23.282;2023-04-27T08:25:02;94556.91;;;8.75;61.42
35989;BME280;22064;42.672;23.282;2023-04-27T08:27:29;94562.97;;;8.81;61.36
35989;BME280;22064;42.672;23.282;2023-04-27T08:29:55;94546.47;;;8.87;62.46
35989;BME280;22064;42.672;23.282;2023-04-27T08:32:21;94549.44;;;9.24;61.68
35989;BME280;22064;42.672;23.282;2023-04-27T08:34:47;94524.44;;;8.89;60.59
35989;BME280;22064;42.672;23.282;2023-04-27T08:37:13;94547.63;;;9.08;59.90
35989;BME280;22064;42.672;23.282;2023-04-27T08:39:39;94548.81;;;9.17;58.44
35989;BME280;22064;42.672;23.282;2023-04-27T08:42:13;94545.44;;;9.16;58.06
35989;BME280;22064;42.672;23.282;2023-04-27T08:44:40;94565.94;;;9.01;58.52
35989;BME280;22064;42.672;23.282;2023-04-27T08:47:06;94559.75;;;9.36;58.05
35989;BME280;22064;42.672;23.282;2023-04-27T08:49:34;94549.75;;;9.28;57.13
35989;BME280;22064;42.672;23.282;2023-04-27T08:52:00;94552.66;;;9.31;57.16
35989;BME280;22064;42.672;23.282;2023-04-27T08:54:26;94547.56;;;9.19;57.07
35989;BME280;22064;42.672;23.282;2023-04-27T08:56:52;94560.22;;;9.49;55.18
35989;BME280;22064;42.672;23.282;2023-04-27T08:59:18;94552.91;;;9.63;55.19
35989;BME280;22064;42.672;23.282;2023-04-27T09:01:45;94567.72;;;9.63;55.17
35989;BME280;22064;42.672;23.282;2023-04-27T09:04:14;94565.91;;;9.46;55.20
35989;BME280;22064;42.672;23.282;2023-04-27T09:06:40;94556.22;;;9.42;54.86
35989;BME280;22064;42.672;23.282;2023-04-27T09:09:06;94548.66;;;9.57;55.18
35989;BME280;22064;42.672;23.282;2023-04-27T09:11:34;94543.13;;;9.37;54.05
35989;BME280;22064;42.672;23.282;2023-04-27T09:14:02;94568.59;;;9.52;54.87
35989;BME280;22064;42.672;23.282;2023-04-27T09:16:29;94539.97;;;9.85;53.65
35989;BME280;22064;42.672;23.282;2023-04-27T09:18:57;94542.09;;;10.27;53.47
35989;BME280;22064;42.672;23.282;2023-04-27T09:21:27;94547.75;;;10.41;52.19
35989;BME280;22064;42.672;23.282;2023-04-27T09:23:54;94542.66;;;10.29;52.99
35989;BME280;22064;42.672;23.282;2023-04-27T09:26:25;94540.56;;;9.92;51.94
35989;BME280;22064;42.672;23.282;2023-04-27T09:28:54;94536.50;;;9.80;50.52
35989;BME280;22064;42.672;23.282;2023-04-27T09:31:35;94534.34;;;10.32;51.14
35989;BME280;22064;42.672;23.282;2023-04-27T09:34:02;94529.00;;;10.22;50.33
35989;BME280;22064;42.672;23.282;2023-04-27T09:36:29;94528.94;;;10.61;49.12
35989;BME280;22064;42.672;23.282;2023-04-27T09:38:57;94521.06;;;10.78;50.37
35989;BME280;22064;42.672;23.282;2023-04-27T09:41:26;94532.97;;;10.47;50.67
35989;BME280;22064;42.672;23.282;2023-04-27T09:43:54;94518.59;;;10.22;51.17
35989;BME280;22064;42.672;23.282;2023-04-27T09:46:21;94514.75;;;10.47;50.59
35989;BME280;22064;42.672;23.282;2023-04-27T09:48:48;94508.66;;;10.63;48.89
35989;BME280;22064;42.672;23.282;2023-04-27T09:51:15;94519.56;;;10.87;47.19
35989;BME280;22064;42.672;23.282;2023-04-27T09:53:50;94502.81;;;10.51;46.74
35989;BME280;22064;42.672;23.282;2023-04-27T09:56:59;94498.75;;;10.60;48.85
35989;BME280;22064;42.672;23.282;2023-04-27T10:02:06;94508.38;;;10.86;47.76
35989;BME280;22064;42.672;23.282;2023-04-27T10:05:21;94505.78;;;10.37;46.86
35989;BME280;22064;42.672;23.282;2023-04-27T10:07:43;94507.03;;;10.84;47.61
35989;BME280;22064;42.672;23.282;2023-04-27T10:10:15;94499.50;;;11.47;47.63
35989;BME280;22064;42.672;23.282;2023-04-27T10:12:55;94503.34;;;11.39;45.59
35989;BME280;22064;42.672;23.282;2023-04-27T10:15:25;94504.94;;;11.45;45.37
35989;BME280;22064;42.672;23.282;2023-04-27T10:17:52;94496.72;;;10.94;45.60
35989;BME280;22064;42.672;23.282;2023-04-27T10:20:36;94507.88;;;10.90;45.18
35989;BME280;22064;42.672;23.282;2023-04-27T10:23:02;94496.06;;;11.41;45.87
35989;BME280;22064;42.672;23.282;2023-04-27T10:25:36;94497.34;;;11.39;44.95
35989;BME280;22064;42.672;23.282;2023-04-27T10:28:03;94495.50;;;11.39;45.10
35989;BME280;22064;42.672;23.282;2023-04-27T10:30:38;94495.00;;;11.42;46.14
35989;BME280;22064;42.672;23.282;2023-04-27T10:33:09;94511.69;;;11.41;44.70
35989;BME280;22064;42.672;23.282;2023-04-27T10:35:44;94499.66;;;11.35;45.61
35989;BME280;22064;42.672;23.282;2023-04-27T10:38:19;94499.06;;;11.60;44.48
35989;BME280;22064;42.672;23.282;2023-04-27T10:41:00;94501.59;;;11.50;45.15
35989;BME280;22064;42.672;23.282;2023-04-27T10:43:44;94496.88;;;11.47;44.60
35989;BME280;22064;42.672;23.282;2023-04-27T10:46:13;94489.00;;;11.79;44.92
35989;BME280;22064;42.672;23.282;2023-04-27T10:48:40;94497.03;;;11.72;43.94
35989;BME280;22064;42.672;23.282;2023-04-27T10:51:06;94497.94;;;12.51;43.50
35989;BME280;22064;42.672;23.282;2023-04-27T10:53:33;94506.19;;;11.75;41.76
35989;BME280;22064;42.672;23.282;2023-04-27T10:56:00;94491.34;;;11.80;42.08
35989;BME280;22064;42.672;23.282;2023-04-27T10:58:26;94490.75;;;12.06;42.21
35989;BME280;22064;42.672;23.282;2023-04-27T11:00:52;94501.38;;;11.94;42.46
35989;BME280;22064;42.672;23.282;2023-04-27T11:03:22;94503.22;;;11.61;43.22
35989;BME280;22064;42.672;23.282;2023-04-27T11:05:58;94500.28;;;11.52;43.72
35989;BME280;22064;42.672;23.282;2023-04-27T11:08:24;94494.69;;;11.71;44.17
35989;BME280;22064;42.672;23.282;2023-04-27T11:10:51;94491.56;;;11.74;42.92
35989;BME280;22064;42.672;23.282;2023-04-27T11:13:19;94498.56;;;11.63;43.07
35989;BME280;22064;42.672;23.282;2023-04-27T11:15:50;94484.19;;;11.61;42.68
35989;BME280;22064;42.672;23.282;2023-04-27T11:18:18;94496.06;;;11.46;43.29
35989;BME280;22064;42.672;23.282;2023-04-27T11:20:47;94506.88;;;11.60;44.32
35989;BME280;22064;42.672;23.282;2023-04-27T11:23:23;94494.38;;;11.62;44.80
35989;BME280;22064;42.672;23.282;2023-04-27T11:25:49;94497.31;;;12.18;43.93
35989;BME280;22064;42.672;23.282;2023-04-27T11:28:16;94508.75;;;12.07;43.91
35989;BME280;22064;42.672;23.282;2023-04-27T11:30:43;94500.00;;;11.49;44.18
35989;BME280;22064;42.672;23.282;2023-04-27T11:33:08;94495.91;;;11.58;43.97
35989;BME280;22064;42.672;23.282;2023-04-27T11:35:34;94508.81;;;11.38;44.13
35989;BME280;22064;42.672;23.282;2023-04-27T11:38:01;94506.22;;;11.43;44.31
35989;BME280;22064;42.672;23.282;2023-04-27T11:40:27;94513.03;;;11.44;44.41
35989;BME280;22064;42.672;23.282;2023-04-27T11:42:57;94502.16;;;11.57;44.41
35989;BME280;22064;42.672;23.282;2023-04-27T11:45:25;94519.16;;;12.02;43.95
35989;BME280;22064;42.672;23.282;2023-04-27T11:47:52;94511.91;;;12.09;44.09
35989;BME280;22064;42.672;23.282;2023-04-27T11:50:18;94518.38;;;11.64;44.42
35989;BME280;22064;42.672;23.282;2023-04-27T11:52:48;94512.38;;;11.64;43.92
35989;BME280;22064;42.672;23.282;2023-04-27T11:55:13;94501.47;;;12.14;44.06
35989;BME280;22064;42.672;23.282;2023-04-27T11:57:42;94505.66;;;12.15;42.75
35989;BME280;22064;42.672;23.282;2023-04-27T12:00:08;94512.03;;;11.87;43.35
35989;BME280;22064;42.672;23.282;2023-04-27T12:02:39;94496.16;;;11.94;43.67
35989;BME280;22064;42.672;23.282;2023-04-27T12:05:06;94505.06;;;12.03;43.41
35989;BME280;22064;42.672;23.282;2023-04-27T12:07:32;94511.84;;;12.04;43.27
35989;BME280;22064;42.672;23.282;2023-04-27T12:09:58;94515.13;;;11.84;44.15
35989;BME280;22064;42.672;23.282;2023-04-27T12:12:24;94516.66;;;11.80;43.29
35989;BME280;22064;42.672;23.282;2023-04-27T12:14:50;94527.34;;;11.84;42.67
35989;BME280;22064;42.672;23.282;2023-04-27T12:17:17;94518.31;;;11.54;43.54
35989;BME280;22064;42.672;23.282;2023-04-27T12:19:43;94528.25;;;11.57;43.76
35989;BME280;22064;42.672;23.282;2023-04-27T12:22:09;94525.94;;;11.28;43.30
35989;BME280;22064;42.672;23.282;2023-04-27T12:24:34;94545.13;;;11.49;43.52
35989;BME280;22064;42.672;23.282;2023-04-27T12:27:02;94508.16;;;11.57;44.42
35989;BME280;22064;42.672;23.282;2023-04-27T12:29:28;94540.38;;;11.78;43.45
35989;BME280;22064;42.672;23.282;2023-04-27T12:31:58;94521.81;;;11.70;43.11
35989;BME280;22064;42.672;23.282;2023-04-27T12:34:24;94534.19;;;11.85;43.62
35989;BME280;22064;42.672;23.282;2023-04-27T12:36:50;94510.88;;;11.73;44.42
35989;BME280;22064;42.672;23.282;2023-04-27T12:39:20;94533.75;;;11.28;44.73
35989;BME280;22064;42.672;23.282;2023-04-27T12:41:47;94525.84;;;11.18;44.52
35989;BME280;22064;42.672;23.282;2023-04-27T12:44:15;94529.97;;;11.14;44.50
35989;BME280;22064;42.672;23.282;2023-04-27T12:46:42;94517.13;;;11.35;44.98
35989;BME280;22064;42.672;23.282;2023-04-27T12:49:09;94532.78;;;11.40;44.60
35989;BME280;22064;42.672;23.282;2023-04-27T12:51:36;94520.31;;;11.79;43.68
35989;BME280;22064;42.672;23.282;2023-04-27T12:54:03;94519.41;;;11.63;43.84
35989;BME280;22064;42.672;23.282;2023-04-27T12:56:29;94524.22;;;11.82;43.64
35989;BME280;22064;42.672;23.282;2023-04-27T12:58:56;94521.69;;;11.54;43.64